Time;durP1;ratioP1;P1;durP2;ratioP2;P2;SDS_P1;SDS_P2;PMS_P1;PMS_P2;Temp;Humidity;BMP_temperature;BMP_pressure;BME280_temperature;BME280_humidity;BME280_pressure;Samples;Min_cycle;Max_cycle;Signal;HPM_P1;HPM_P2
2021/09/18 01:06:46;;;;;;;;;;;20.20;99.90;;;;;;2620046;54;19973;-74
2021/09/18 13:30:11;;;;;;;;;;;25.20;99.90;;;;;;2619020;54;19963;-70
2021/09/18 13:32:37;;;;;;;;;;;25.30;99.90;;;;;;2618808;54;19942;-71
2021/09/18 13:35:03;;;;;;;;;;;25.30;99.90;;;;;;2618048;47;19939;-71
2021/09/18 13:37:29;;;;;;;;;;;25.30;99.90;;;;;;2618134;47;19935;-70
2021/09/18 13:39:55;;;;;;;;;;;25.30;99.90;;;;;;2618254;47;19941;-71
2021/09/18 13:42:23;;;;;;;;;;;25.40;99.90;;;;;;2618709;54;19970;-70
2021/09/18 13:44:49;;;;;;;;;;;25.50;99.90;;;;;;2619265;54;19935;-70
2021/09/18 13:47:17;;;;;;;;;;;25.80;99.90;;;;;;2619351;54;19935;-71
2021/09/18 13:49:43;;;;;;;;;;;25.90;99.90;;;;;;2618941;46;19942;-71
2021/09/18 13:52:09;;;;;;;;;;;26.10;99.90;;;;;;2619186;54;19934;-70
2021/09/18 13:54:35;;;;;;;;;;;26.20;99.90;;;;;;2619193;39;20322;-71
2021/09/18 13:57:02;;;;;;;;;;;26.40;99.90;;;;;;2619421;54;19979;-70
2021/09/18 13:59:27;;;;;;;;;;;26.40;99.90;;;;;;2619523;39;20334;-71
2021/09/18 14:01:53;;;;;;;;;;;26.40;99.90;;;;;;2619549;54;19942;-71
2021/09/18 14:04:22;;;;;;;;;;;26.30;99.90;;;;;;2619510;54;19946;-70
2021/09/18 14:06:47;;;;;;;;;;;26.10;99.90;;;;;;2619335;54;19961;-71
2021/09/18 14:09:13;;;;;;;;;;;26.10;99.90;;;;;;2619290;54;19935;-70
2021/09/18 14:11:39;;;;;;;;;;;26.10;99.90;;;;;;2618726;47;19939;-70
2021/09/18 14:14:05;;;;;;;;;;;26.10;99.90;;;;;;2619288;54;19958;-72
2021/09/18 14:16:31;;;;;;;;;;;26.00;99.90;;;;;;2619592;54;19938;-72
2021/09/18 14:18:57;;;;;;;;;;;25.80;99.90;;;;;;2619961;39;20112;-71
2021/09/18 14:21:25;;;;;;;;;;;25.70;99.90;;;;;;2619455;54;19961;-73
2021/09/18 14:23:51;;;;;;;;;;;25.50;99.90;;;;;;2619498;54;19934;-71
2021/09/18 14:26:16;;;;;;;;;;;25.50;99.90;;;;;;2620336;31;20390;-70
2021/09/18 14:28:42;;;;;;;;;;;25.30;99.90;;;;;;2618927;54;19963;-71
2021/09/18 14:31:08;;;;;;;;;;;25.30;99.90;;;;;;2619398;54;19943;-71
2021/09/18 14:33:34;;;;;;;;;;;25.40;99.90;;;;;;2619446;54;20429;-72
2021/09/18 14:35:59;;;;;;;;;;;25.30;99.90;;;;;;2619258;39;20306;-71
2021/09/18 14:38:28;;;;;;;;;;;25.40;99.90;;;;;;2619399;54;19951;-72
2021/09/18 14:40:53;;;;;;;;;;;25.40;99.90;;;;;;2619476;54;19946;-70
2021/09/18 14:43:19;;;;;;;;;;;25.40;99.90;;;;;;2618904;46;19973;-71
2021/09/18 14:45:45;;;;;;;;;;;25.50;99.90;;;;;;2619386;54;19958;-71
2021/09/18 14:48:11;;;;;;;;;;;25.40;99.90;;;;;;2618802;47;19942;-70
2021/09/18 14:50:37;;;;;;;;;;;25.30;99.90;;;;;;2619297;54;19934;-72
2021/09/18 14:53:02;;;;;;;;;;;25.20;99.90;;;;;;2618929;47;19935;-71
2021/09/18 14:55:31;;;;;;;;;;;25.10;99.90;;;;;;2618430;47;19935;-71
2021/09/18 14:57:57;;;;;;;;;;;25.00;99.90;;;;;;2619270;54;19935;-70
2021/09/18 15:00:22;;;;;;;;;;;25.00;99.90;;;;;;2619334;54;19970;-70
2021/09/18 15:02:48;;;;;;;;;;;24.90;99.90;;;;;;2618713;46;19943;-70
2021/09/18 15:05:14;;;;;;;;;;;24.80;99.90;;;;;;2619514;54;19946;-70
2021/09/18 15:07:40;;;;;;;;;;;24.80;99.90;;;;;;2619467;54;20026;-71
2021/09/18 15:10:06;;;;;;;;;;;24.80;99.90;;;;;;2619018;47;19957;-72
2021/09/18 15:12:34;;;;;;;;;;;24.80;99.90;;;;;;2618336;54;20406;-72
2021/09/18 15:15:00;;;;;;;;;;;24.80;99.90;;;;;;2618717;47;19935;-72
2021/09/18 15:17:26;;;;;;;;;;;24.70;99.90;;;;;;2619375;54;19935;-70
2021/09/18 15:19:52;;;;;;;;;;;24.70;99.90;;;;;;2619504;54;19941;-72
2021/09/18 15:22:18;;;;;;;;;;;24.70;99.90;;;;;;2619610;54;20405;-71
2021/09/18 15:24:44;;;;;;;;;;;24.60;99.90;;;;;;2618822;47;19939;-73
2021/09/18 15:27:10;;;;;;;;;;;24.80;99.90;;;;;;2619244;54;20038;-71
2021/09/18 15:29:39;;;;;;;;;;;24.90;99.90;;;;;;2619188;54;19941;-71
2021/09/18 15:32:04;;;;;;;;;;;24.80;99.90;;;;;;2619690;54;19942;-71
2021/09/18 15:34:31;;;;;;;;;;;24.80;99.90;;;;;;2618674;46;20414;-71
2021/09/18 15:36:57;;;;;;;;;;;24.80;99.90;;;;;;2619785;54;19962;-71
2021/09/18 15:39:23;;;;;;;;;;;24.90;99.90;;;;;;2619766;54;19938;-71
2021/09/18 15:41:49;;;;;;;;;;;24.90;99.90;;;;;;2619443;54;19947;-70
2021/09/18 15:44:15;;;;;;;;;;;24.80;99.90;;;;;;2619219;54;20429;-71
2021/09/18 15:46:44;;;;;;;;;;;24.90;99.90;;;;;;2619176;54;19939;-73
2021/09/18 15:49:10;;;;;;;;;;;24.90;99.90;;;;;;2619356;54;19982;-70
2021/09/18 15:51:35;;;;;;;;;;;24.80;99.90;;;;;;2619728;39;20417;-72
2021/09/18 15:54:01;;;;;;;;;;;24.60;99.90;;;;;;2619423;54;19947;-71
2021/09/18 15:56:27;;;;;;;;;;;24.60;99.90;;;;;;2619485;54;19982;-71
2021/09/18 15:58:53;;;;;;;;;;;24.50;99.90;;;;;;2619411;47;19946;-69
2021/09/18 16:01:19;;;;;;;;;;;24.50;99.90;;;;;;2618382;47;19939;-72
2021/09/18 16:03:47;;;;;;;;;;;24.40;99.90;;;;;;2618687;54;19965;-69
2021/09/18 16:06:13;;;;;;;;;;;24.30;99.90;;;;;;2618536;47;19946;-72
2021/09/18 16:08:39;;;;;;;;;;;24.20;99.90;;;;;;2619494;39;20357;-70
2021/09/18 16:11:04;;;;;;;;;;;24.20;99.90;;;;;;2619204;54;19969;-71
2021/09/18 16:13:30;;;;;;;;;;;24.20;99.90;;;;;;2618268;54;19963;-71
2021/09/18 16:15:56;;;;;;;;;;;24.20;99.90;;;;;;2617721;47;19972;-70
2021/09/18 16:18:22;;;;;;;;;;;24.20;99.90;;;;;;2618854;54;19938;-71
2021/09/18 16:20:50;;;;;;;;;;;24.20;99.90;;;;;;2618972;54;20474;-71
2021/09/18 16:23:16;;;;;;;;;;;24.20;99.90;;;;;;2619033;54;19938;-71
2021/09/18 16:25:42;;;;;;;;;;;24.10;99.90;;;;;;2619007;54;19963;-70
2021/09/18 16:28:08;;;;;;;;;;;24.10;99.90;;;;;;2618418;47;19935;-71
2021/09/18 16:30:34;;;;;;;;;;;24.10;99.90;;;;;;2618990;54;19945;-69
2021/09/18 16:33:00;;;;;;;;;;;24.10;99.90;;;;;;2618857;54;19938;-70
2021/09/18 16:35:25;;;;;;;;;;;24.10;99.90;;;;;;2618208;47;20030;-70
2021/09/18 16:37:54;;;;;;;;;;;24.10;99.90;;;;;;2618360;47;20014;-71
2021/09/18 16:40:19;;;;;;;;;;;24.00;99.90;;;;;;2618239;47;20433;-69
2021/09/18 16:42:45;;;;;;;;;;;23.90;99.90;;;;;;2619008;54;19939;-70
2021/09/18 16:45:12;;;;;;;;;;;23.70;99.90;;;;;;2619006;54;19939;-71
2021/09/18 16:47:39;;;;;;;;;;;23.50;99.90;;;;;;2619210;54;19938;-71
2021/09/18 16:50:05;;;;;;;;;;;23.40;99.90;;;;;;2619336;54;19946;-71
2021/09/18 16:52:33;;;;;;;;;;;23.40;99.90;;;;;;2619568;39;20346;-71
2021/09/18 16:55:02;;;;;;;;;;;23.40;99.90;;;;;;2618209;47;19942;-71
2021/09/18 16:57:28;;;;;;;;;;;23.40;99.90;;;;;;2619551;39;20354;-70
2021/09/18 16:59:54;;;;;;;;;;;23.40;99.90;;;;;;2619101;54;19934;-71
2021/09/18 17:02:19;;;;;;;;;;;23.30;99.90;;;;;;2618482;47;20514;-70
2021/09/18 17:04:46;;;;;;;;;;;23.40;99.90;;;;;;2619767;31;20410;-71
2021/09/18 17:07:12;;;;;;;;;;;23.40;99.90;;;;;;2619157;54;19938;-71
2021/09/18 17:09:37;;;;;;;;;;;23.40;99.90;;;;;;2618906;54;19958;-70
2021/09/18 17:12:06;;;;;;;;;;;23.40;99.90;;;;;;2618248;47;19946;-70
2021/09/18 17:14:35;;;;;;;;;;;23.40;99.90;;;;;;2618441;46;20409;-71
2021/09/18 17:17:00;;;;;;;;;;;23.30;99.90;;;;;;2618953;54;20410;-70
2021/09/18 17:19:26;;;;;;;;;;;23.30;99.90;;;;;;2618802;54;19969;-71
2021/09/18 17:21:52;;;;;;;;;;;23.10;99.90;;;;;;2618851;54;20047;-71
2021/09/18 17:24:18;;;;;;;;;;;23.10;99.90;;;;;;2617811;46;19943;-71
2021/09/18 17:26:44;;;;;;;;;;;22.90;99.90;;;;;;2619016;54;20029;-71
2021/09/18 17:29:12;;;;;;;;;;;22.80;99.90;;;;;;2618535;39;20329;-69
2021/09/18 17:31:38;;;;;;;;;;;22.70;99.90;;;;;;2618943;54;19946;-70
2021/09/18 17:34:04;;;;;;;;;;;22.80;99.90;;;;;;2619127;54;20436;-71
2021/09/18 17:36:29;;;;;;;;;;;22.80;99.90;;;;;;2619378;54;19962;-73
2021/09/18 17:38:56;;;;;;;;;;;22.80;99.90;;;;;;2619117;54;19934;-73
2021/09/18 17:41:22;;;;;;;;;;;22.80;99.90;;;;;;2618964;54;19962;-72
2021/09/18 17:43:48;;;;;;;;;;;22.80;99.90;;;;;;2618796;54;19935;-71
2021/09/18 17:46:16;;;;;;;;;;;22.80;99.90;;;;;;2618611;54;20026;-70
2021/09/18 17:48:42;;;;;;;;;;;22.80;99.90;;;;;;2618122;47;19939;-70
2021/09/18 17:51:08;;;;;;;;;;;22.70;99.90;;;;;;2619013;54;19939;-70
2021/09/18 17:53:34;;;;;;;;;;;22.50;99.90;;;;;;2618849;54;20022;-72
2021/09/18 17:56:00;;;;;;;;;;;22.40;99.90;;;;;;2618981;54;19938;-71
2021/09/18 17:58:25;;;;;;;;;;;22.40;99.90;;;;;;2618726;54;20445;-71
2021/09/18 18:00:51;;;;;;;;;;;22.30;99.90;;;;;;2618622;47;19968;-70
2021/09/18 18:03:20;;;;;;;;;;;22.30;99.90;;;;;;2618726;54;20433;-70
2021/09/18 18:05:45;;;;;;;;;;;22.20;99.90;;;;;;2617970;47;20418;-70
2021/09/18 18:08:11;;;;;;;;;;;22.20;99.90;;;;;;2618569;54;19945;-70
2021/09/18 18:10:37;;;;;;;;;;;22.20;99.90;;;;;;2618817;54;19946;-70
2021/09/18 18:13:03;;;;;;;;;;;22.20;99.90;;;;;;2618773;54;20026;-71
2021/09/18 18:15:29;;;;;;;;;;;22.20;99.90;;;;;;2618770;54;19950;-71
2021/09/18 18:17:54;;;;;;;;;;;22.20;99.90;;;;;;2618959;39;20321;-72
2021/09/18 18:20:24;;;;;;;;;;;22.10;99.90;;;;;;2619440;39;20338;-70
2021/09/18 18:22:50;;;;;;;;;;;22.10;99.90;;;;;;2618524;47;19985;-69
2021/09/18 18:25:16;;;;;;;;;;;22.10;99.90;;;;;;2618398;54;20426;-71
2021/09/18 18:27:42;;;;;;;;;;;22.10;99.90;;;;;;2618457;54;19939;-73
2021/09/18 18:30:09;;;;;;;;;;;22.10;99.90;;;;;;2618714;54;19946;-69
2021/09/18 18:32:35;;;;;;;;;;;22.00;99.90;;;;;;2618317;54;19939;-72
2021/09/18 18:35:01;;;;;;;;;;;22.10;99.90;;;;;;2620219;39;20338;-69
2021/09/18 18:37:31;;;;;;;;;;;22.10;99.90;;;;;;2619590;54;19935;-70
2021/09/18 18:39:57;;;;;;;;;;;21.90;99.90;;;;;;2619041;46;19938;-71
2021/09/18 18:42:22;;;;;;;;;;;21.90;99.90;;;;;;2619735;54;19958;-76
2021/09/18 18:44:48;;;;;;;;;;;21.90;99.90;;;;;;2620092;54;20415;-70
2021/09/18 18:47:14;;;;;;;;;;;21.90;99.90;;;;;;2619900;54;19935;-72
2021/09/18 18:49:40;;;;;;;;;;;22.00;99.90;;;;;;2619717;54;19982;-71
2021/09/18 18:52:06;;;;;;;;;;;22.00;99.90;;;;;;2619594;54;19950;-72
2021/09/18 18:54:39;;;;;;;;;;;22.00;99.90;;;;;;2619894;54;19939;-74
2021/09/18 18:57:05;;;;;;;;;;;22.00;99.90;;;;;;2619777;54;19993;-72
2021/09/18 18:59:30;;;;;;;;;;;21.90;99.90;;;;;;2619761;54;19939;-72
2021/09/18 19:01:56;;;;;;;;;;;21.80;99.90;;;;;;2619368;47;20021;-72
2021/09/18 19:04:22;;;;;;;;;;;21.70;99.90;;;;;;2618951;47;19939;-72
2021/09/18 19:06:48;;;;;;;;;;;21.50;99.90;;;;;;2619674;54;19985;-71
2021/09/18 19:09:14;;;;;;;;;;;21.40;99.90;;;;;;2619684;54;19961;-71
2021/09/18 19:11:42;;;;;;;;;;;21.30;99.90;;;;;;2619289;47;19939;-74
2021/09/18 19:14:08;;;;;;;;;;;21.20;99.90;;;;;;2619356;47;19934;-70
2021/09/18 19:16:34;;;;;;;;;;;21.20;99.90;;;;;;2620167;39;20337;-71
2021/09/18 19:18:59;;;;;;;;;;;21.20;99.90;;;;;;2619963;54;19963;-72
2021/09/18 19:21:25;;;;;;;;;;;21.30;99.90;;;;;;2619791;54;19947;-70
2021/09/18 19:23:51;;;;;;;;;;;21.30;99.90;;;;;;2618341;54;20407;-70
2021/09/18 19:26:17;;;;;;;;;;;21.30;99.90;;;;;;2619412;54;19969;-72
2021/09/18 19:28:45;;;;;;;;;;;21.20;99.90;;;;;;2619552;54;20429;-70
2021/09/18 19:31:11;;;;;;;;;;;21.10;99.90;;;;;;2618829;47;19942;-71
2021/09/18 19:33:38;;;;;;;;;;;20.90;99.90;;;;;;2619354;54;19943;-69
2021/09/18 19:36:06;;;;;;;;;;;20.70;99.90;;;;;;2619629;54;19945;-71
2021/09/18 19:38:31;;;;;;;;;;;20.60;99.90;;;;;;2618942;47;19935;-72
2021/09/18 19:40:59;;;;;;;;;;;20.50;99.90;;;;;;2618739;47;19970;-71
2021/09/18 19:43:25;;;;;;;;;;;20.50;99.90;;;;;;2619304;54;20029;-72
2021/09/18 19:45:54;;;;;;;;;;;20.50;99.90;;;;;;2619192;54;19943;-71
2021/09/18 19:48:19;;;;;;;;;;;20.50;99.90;;;;;;2619226;54;20030;-70
2021/09/18 19:50:45;;;;;;;;;;;20.50;99.90;;;;;;2619382;54;19973;-71
2021/09/18 19:53:11;;;;;;;;;;;20.50;99.90;;;;;;2619293;54;19938;-71
2021/09/18 19:55:37;;;;;;;;;;;20.60;99.90;;;;;;2619343;54;19938;-71
2021/09/18 19:58:02;;;;;;;;;;;20.50;99.90;;;;;;2618908;46;19942;-70
2021/09/18 20:00:31;;;;;;;;;;;20.60;99.90;;;;;;2619327;54;19935;-76
2021/09/18 20:03:00;;;;;;;;;;;20.60;99.90;;;;;;2619425;54;19946;-71
2021/09/18 20:05:25;;;;;;;;;;;20.50;99.90;;;;;;2619553;54;19935;-71
2021/09/18 20:07:51;;;;;;;;;;;20.50;99.90;;;;;;2619474;54;19934;-72
2021/09/18 20:10:17;;;;;;;;;;;20.40;99.90;;;;;;2619299;54;19938;-72
2021/09/18 20:12:43;;;;;;;;;;;20.20;99.90;;;;;;2619388;39;20355;-71
2021/09/18 20:15:10;;;;;;;;;;;20.10;99.90;;;;;;2619338;54;19945;-72
2021/09/18 20:17:36;;;;;;;;;;;20.00;99.90;;;;;;2619648;54;19946;-70
2021/09/18 20:20:06;;;;;;;;;;;20.00;99.90;;;;;;2619753;54;19938;-72
2021/09/18 20:22:34;;;;;;;;;;;20.10;99.90;;;;;;2620098;39;20337;-73
2021/09/18 20:25:00;;;;;;;;;;;20.10;99.90;;;;;;2619450;54;19959;-70
2021/09/18 20:27:26;;;;;;;;;;;20.10;99.90;;;;;;2619778;54;19939;-70
2021/09/18 20:29:52;;;;;;;;;;;20.10;99.90;;;;;;2618900;54;19947;-70
2021/09/18 20:32:18;;;;;;;;;;;20.10;99.90;;;;;;2619683;54;19938;-70
2021/09/18 20:34:44;;;;;;;;;;;20.10;99.90;;;;;;2619696;54;19941;-71
2021/09/18 20:37:12;;;;;;;;;;;20.00;99.90;;;;;;2619796;39;20337;-73
2021/09/18 20:39:38;;;;;;;;;;;20.00;99.90;;;;;;2619456;54;19942;-73
2021/09/18 20:42:04;;;;;;;;;;;19.90;99.90;;;;;;2620136;39;20331;-70
2021/09/18 20:44:30;;;;;;;;;;;19.80;99.90;;;;;;2619839;54;20051;-71
2021/09/18 20:46:56;;;;;;;;;;;19.70;99.90;;;;;;2619576;54;19958;-71
2021/09/18 20:49:21;;;;;;;;;;;19.70;99.90;;;;;;2619528;54;20441;-70
2021/09/18 20:51:47;;;;;;;;;;;19.70;99.90;;;;;;2619632;54;19935;-72
2021/09/18 20:54:16;;;;;;;;;;;19.70;99.90;;;;;;2619389;54;20406;-71
2021/09/18 20:56:42;;;;;;;;;;;19.70;99.90;;;;;;2620001;39;20303;-72
2021/09/18 20:59:07;;;;;;;;;;;19.70;99.90;;;;;;2619499;54;20039;-71
2021/09/18 21:06:43;;;;;;;;;;;19.90;99.90;;;;;;2619618;46;19977;-69
2021/09/18 21:09:10;;;;;;;;;;;19.90;99.90;;;;;;2619389;39;20355;-71
2021/09/18 21:11:39;;;;;;;;;;;19.90;99.90;;;;;;2619066;47;19939;-72
2021/09/18 21:14:05;;;;;;;;;;;19.90;99.90;;;;;;2619789;39;20330;-72
2021/09/18 21:16:31;;;;;;;;;;;19.70;99.90;;;;;;2619108;54;19962;-71
2021/09/18 21:18:57;;;;;;;;;;;19.70;99.90;;;;;;2619520;39;20358;-71
2021/09/18 21:21:22;;;;;;;;;;;19.60;99.90;;;;;;2619008;54;19938;-71
2021/09/18 21:23:48;;;;;;;;;;;19.50;99.90;;;;;;2619131;54;20077;-71
2021/09/18 21:26:14;;;;;;;;;;;19.50;99.90;;;;;;2619242;54;19974;-70
2021/09/18 21:28:45;;;;;;;;;;;19.50;99.90;;;;;;2619094;54;19941;-72
2021/09/18 21:31:11;;;;;;;;;;;19.50;99.90;;;;;;2618948;54;19946;-71
2021/09/18 21:33:36;;;;;;;;;;;19.50;99.90;;;;;;2618430;47;19966;-71
2021/09/18 21:36:03;;;;;;;;;;;19.50;99.90;;;;;;2618751;47;19942;-70
2021/09/18 21:38:28;;;;;;;;;;;19.60;99.90;;;;;;2618943;54;19939;-71
2021/09/18 21:40:54;;;;;;;;;;;19.60;99.90;;;;;;2619336;39;20361;-73
2021/09/18 21:43:21;;;;;;;;;;;19.60;99.90;;;;;;2619311;54;20058;-72
2021/09/18 21:45:49;;;;;;;;;;;19.60;99.90;;;;;;2619277;54;19939;-70
2021/09/18 21:48:15;;;;;;;;;;;19.60;99.90;;;;;;2619076;54;19939;-69
2021/09/18 21:50:41;;;;;;;;;;;19.60;99.90;;;;;;2618951;54;19962;-71
2021/09/18 21:53:07;;;;;;;;;;;19.60;99.90;;;;;;2619123;54;19945;-71
2021/09/18 21:55:33;;;;;;;;;;;19.60;99.90;;;;;;2618386;54;19939;-72
2021/09/18 21:57:58;;;;;;;;;;;19.70;99.90;;;;;;2618900;54;19938;-72
2021/09/18 22:00:39;;;;;;;;;;;19.70;99.90;;;;;;2618895;54;19953;-71
2021/09/18 22:03:07;;;;;;;;;;;19.70;99.90;;;;;;2618491;47;19966;-69
2021/09/18 22:05:33;;;;;;;;;;;19.80;99.90;;;;;;2619596;54;19942;-71
2021/09/18 22:07:59;;;;;;;;;;;19.80;99.90;;;;;;2619635;46;19974;-70
2021/09/18 22:10:25;;;;;;;;;;;19.80;99.90;;;;;;2619955;46;19965;-69
2021/09/18 22:12:51;;;;;;;;;;;19.70;99.90;;;;;;2620124;54;20430;-72
2021/09/18 22:15:18;;;;;;;;;;;19.70;99.90;;;;;;2619753;54;19934;-72
2021/09/18 22:17:45;;;;;;;;;;;19.70;99.90;;;;;;2619748;54;19966;-70
2021/09/18 22:20:13;;;;;;;;;;;19.70;99.90;;;;;;2619899;54;19946;-70
2021/09/18 22:22:39;;;;;;;;;;;19.60;99.90;;;;;;2619259;39;20366;-71
2021/09/18 22:25:06;;;;;;;;;;;19.60;99.90;;;;;;2619422;47;19939;-71
2021/09/18 22:27:32;;;;;;;;;;;19.60;99.90;;;;;;2620022;54;20029;-70
2021/09/18 22:29:57;;;;;;;;;;;19.60;99.90;;;;;;2620600;39;20309;-71
2021/09/18 22:32:23;;;;;;;;;;;19.60;99.90;;;;;;2619935;46;19984;-72
2021/09/18 22:34:49;;;;;;;;;;;19.60;99.90;;;;;;2620515;39;20341;-70
2021/09/18 22:37:18;;;;;;;;;;;19.60;99.90;;;;;;2619972;54;19939;-71
2021/09/18 22:39:44;;;;;;;;;;;19.60;99.90;;;;;;2619432;46;19939;-72
2021/09/18 22:42:10;;;;;;;;;;;19.60;99.90;;;;;;2619911;54;19935;-73
2021/09/18 22:44:36;;;;;;;;;;;19.60;99.90;;;;;;2619386;47;19935;-70
2021/09/18 22:47:01;;;;;;;;;;;19.60;99.90;;;;;;2620001;54;19935;-72
2021/09/18 22:49:27;;;;;;;;;;;19.60;99.90;;;;;;2619271;47;19939;-70
2021/09/18 22:51:53;;;;;;;;;;;19.60;99.90;;;;;;2619963;54;19938;-70
2021/09/18 22:54:21;;;;;;;;;;;19.50;99.90;;;;;;2619226;46;19939;-71
2021/09/18 22:56:47;;;;;;;;;;;19.50;99.90;;;;;;2619286;46;19938;-73
2021/09/18 22:59:13;;;;;;;;;;;19.50;99.90;;;;;;2618936;54;19934;-70
2021/09/18 23:01:39;;;;;;;;;;;19.30;99.90;;;;;;2620448;39;20354;-73
2021/09/18 23:04:05;;;;;;;;;;;19.30;99.90;;;;;;2619614;46;20022;-71
2021/09/18 23:06:31;;;;;;;;;;;19.30;99.90;;;;;;2618811;54;19962;-71
2021/09/18 23:08:57;;;;;;;;;;;19.30;99.90;;;;;;2618580;54;20486;-72
2021/09/18 23:11:26;;;;;;;;;;;19.30;99.90;;;;;;2619914;54;19946;-70
2021/09/18 23:13:52;;;;;;;;;;;19.20;99.90;;;;;;2620044;54;19939;-71
2021/09/18 23:16:19;;;;;;;;;;;19.00;99.90;;;;;;2618783;46;19942;-74
2021/09/18 23:18:45;;;;;;;;;;;;;;;;;;2619842;54;19938;-71
2021/09/18 23:21:11;;;;;;;;;;;19.20;99.90;;;;;;2619926;54;19951;-71
2021/09/18 23:23:37;;;;;;;;;;;19.10;99.90;;;;;;2619995;54;19939;-71
2021/09/18 23:26:04;;;;;;;;;;;19.10;99.90;;;;;;2619226;46;19939;-71
2021/09/18 23:28:33;;;;;;;;;;;19.10;99.90;;;;;;2619638;54;19935;-71
2021/09/18 23:30:59;;;;;;;;;;;19.10;99.90;;;;;;2619769;39;20337;-71
2021/09/18 23:33:25;;;;;;;;;;;19.10;99.90;;;;;;2619483;54;19941;-70
2021/09/18 23:35:50;;;;;;;;;;;19.10;99.90;;;;;;2619774;54;19938;-70
2021/09/18 23:38:16;;;;;;;;;;;19.10;99.90;;;;;;2619707;54;20014;-71
2021/09/18 23:40:42;;;;;;;;;;;19.10;99.90;;;;;;2619028;46;20022;-71
2021/09/18 23:43:08;;;;;;;;;;;19.10;99.90;;;;;;2619344;46;20029;-73
2021/09/18 23:45:36;;;;;;;;;;;19.10;99.90;;;;;;2619802;54;19951;-76
2021/09/18 23:48:02;;;;;;;;;;;18.90;99.90;;;;;;2620202;54;20026;-70
2021/09/18 23:50:28;;;;;;;;;;;19.00;99.90;;;;;;2620081;54;19939;-72
2021/09/18 23:52:54;;;;;;;;;;;19.00;99.90;;;;;;2619779;54;19939;-71
2021/09/18 23:55:20;;;;;;;;;;;19.00;99.90;;;;;;2619783;54;19939;-72
2021/09/18 23:57:45;;;;;;;;;;;19.00;99.90;;;;;;2619829;54;19939;-72
